Bretagne — FNBR — position and weather

sailwx.info

Track history (hours):
 
Tides and Currents Weather Stations Pressure Air Temp Water Temp Dewpoint Dewpoint Depression Visibility Wind Speed Wind Dir Waves Ship Positions

Bretagne

Operator: Brittany Ferries

Last reported at 2015-May-25 18:33 UTC. Time now 2015-May-25 19:34 UTC.
Position N 50°49' W 001°06'.

Length 151 m; beam 27 m.

Type: Ship. MMSI: 227286000.

Date/timePositionNaut miles runAvg speedWind from/ knotsBaromVisibWave heightAir tempDewpointWater temp
2015-May-25 18:33N 50°49' W 001°06'0 0.0
2015-May-25 17:33N 50°49' W 001°06'4 4.1
2015-May-25 16:34N 50°45' W 001°05'1715.9
2015-May-25 15:30N 50°29' W 001°15'1916.7
2015-May-25 14:22N 50°16' W 001°36'5117.0
2015-May-25 11:20N 49°26' W 001°57'1619.1
2015-May-25 10:31N 49°11' W 001°52'29 5.8
2015-May-25 05:33N 48°44' W 002°08'1816.2
2015-May-25 04:27N 48°59' W 002°22'1312.8
2015-May-25 03:25N 49°12' W 002°22'7913.4
2015-May-24 21:33N 50°21' W 001°24'1515.3
2015-May-24 20:33N 50°34' W 001°10'1313.1
2015-May-24 19:34N 50°47' W 001°06'2 1.8
2015-May-24 18:31N 50°49' W 001°06'0 0.0
2015-May-24 17:33N 50°49' W 001°06'7 6.8
2015-May-24 16:33N 50°42' W 001°03'2017.9
2015-May-24 15:26N 50°25' W 001°20'1719.0
2015-May-24 14:33N 50°11' W 001°33'11 0.7
2015-May-23 23:25N 49°60' W 001°31'1314.1
2015-May-23 22:30N 50°13' W 001°28'1314.3
2015-May-23 21:33N 50°24' W 001°17'1514.6
2015-May-23 20:33N 50°37' W 001°06'1010.1
2015-May-23 19:33N 50°47' W 001°06'2 1.9
2015-May-23 18:32N 50°49' W 001°06'0 0.0
2015-May-23 17:31N 50°49' W 001°06'4 4.6
2015-May-23 16:33N 50°44' W 001°04'1616.0
2015-May-23 15:32N 50°29' W 001°14'2116.7
2015-May-23 14:18N 50°13' W 001°34'6 0.4
2015-May-22 22:27N 50°14' W 001°24'1314.1
2015-May-22 21:33N 50°25' W 001°16'1413.7
2015-May-22 20:33N 50°37' W 001°04'1010.3
2015-May-22 19:33N 50°47' W 001°06'2 1.5
2015-May-22 18:32N 50°49' W 001°06'0 0.0
2015-May-22 17:32N 50°49' W 001°06'7 7.3
2015-May-22 16:33N 50°42' W 001°03'2016.6
2015-May-22 15:22N 50°26' W 001°22'66 5.1
2015-May-22 02:17N 49°29' W 002°13'2916.2
2015-May-22 00:32N 49°53' W 001°50'2914.9
2015-May-21 22:33N 50°18' W 001°24'1313.1
2015-May-21 21:33N 50°28' W 001°12'1312.8
2015-May-21 20:33N 50°38' W 001°00'1111.0
2015-May-21 19:33N 50°49' W 001°06'0 0.3
2015-May-21 18:33N 50°49' W 001°06'0 0.0
2015-May-21 17:33N 50°49' W 001°06'6 6.5
2015-May-21 16:34N 50°42' W 001°03'1615.8
2015-May-21 15:33N 50°28' W 001°14'30 1.9
2015-May-20 23:19N 50°01' W 001°34'1515.8
2015-May-20 22:24N 50°15' W 001°29'1214.4
2015-May-20 21:33N 50°23' W 001°15'1313.3
2015-May-20 20:33N 50°34' W 001°02'1212.3
2015-May-20 19:34N 50°46' W 001°05'3 2.9
2015-May-20 18:33N 50°49' W 001°06'0 0.0
2015-May-20 17:33N 50°49' W 001°06'0 0.0
2015-May-20 16:33N 50°49' W 001°06'0 0.0
2015-May-20 15:33N 50°49' W 001°06'0 0.0
2015-May-20 14:33N 50°49' W 001°06'0 0.0
2015-May-20 13:33N 50°49' W 001°06'0 0.0
2015-May-20 12:33N 50°49' W 001°06'0 0.0
2015-May-20 11:33N 50°49' W 001°06'0 0.0
2015-May-20 10:33N 50°49' W 001°06'0 0.0
2015-May-20 09:33N 50°49' W 001°06'0 0.0
2015-May-20 08:33N 50°49' W 001°06'0 0.0
2015-May-20 07:33N 50°49' W 001°06'0 0.1
2015-May-20 06:33N 50°49' W 001°06'1111.5
2015-May-20 05:34N 50°38' W 000°59'1413.5
2015-May-20 04:34N 50°27' W 001°12'13 0.4
2015-May-18 22:09N 50°18' W 001°26'813.4
2015-May-18 21:33N 50°25' W 001°19'1313.4
2015-May-18 20:34N 50°36' W 001°08'1111.3
2015-May-18 19:33N 50°48' W 001°07'1 1.3
2015-May-18 18:32N 50°49' W 001°06'0 0.0
2015-May-18 17:32N 50°49' W 001°06'4 4.4
2015-May-18 16:33N 50°44' W 001°05'1515.1
2015-May-18 15:33N 50°31' W 001°14'10 0.6
2015-May-17 21:33N 50°22' W 001°23'1413.8
2015-May-17 20:33N 50°34' W 001°11'1111.5
2015-May-17 19:34N 50°44' W 001°05'4 4.3
2015-May-17 18:33N 50°49' W 001°06'0 0.0
2015-May-17 17:33N 50°49' W 001°06'3 3.1
2015-May-17 16:33N 50°46' W 001°05'27 1.4
2015-May-16 21:33N 50°22' W 001°25'1514.9
2015-May-16 20:33N 50°34' W 001°11'1211.6
2015-May-16 19:34N 50°45' W 001°05'4 3.8
2015-May-16 18:32N 50°49' W 001°06'0 0.0
2015-May-16 17:33N 50°49' W 001°06'3 2.8
2015-May-16 16:33N 50°46' W 001°05'2317.2
2015-May-16 15:15N 50°25' W 001°18'1419.2
2015-May-16 14:31N 50°13' W 001°30'2217.5
2015-May-16 13:17N 49°56' W 001°50'11 0.9
2015-May-16 00:17N 49°47' W 002°00'4516.7
2015-May-15 21:33N 50°24' W 001°21'1716.7
2015-May-15 20:34N 50°38' W 001°05'1010.5
2015-May-15 19:33N 50°48' W 001°07'  
Track history (hours):
 
Tides and Currents Weather Stations Pressure Air Temp Water Temp Dewpoint Dewpoint Depression Visibility Wind Speed Wind Dir Waves Ship Positions

Bretagne

Operator: Brittany Ferries

Last reported at 2015-May-25 18:33 UTC. Time now 2015-May-25 19:34 UTC.
Position N 50°49' W 001°06'.

Length 151 m; beam 27 m.

Type: Ship. MMSI: 227286000.

Date/timePositionNaut miles runAvg speedWind from/ knotsBaromVisibWave heightAir tempDewpointWater temp
2015-May-25 18:33N 50°49' W 001°06'0 0.0
2015-May-25 17:33N 50°49' W 001°06'4 4.1
2015-May-25 16:34N 50°45' W 001°05'1715.9
2015-May-25 15:30N 50°29' W 001°15'1916.7
2015-May-25 14:22N 50°16' W 001°36'5117.0
2015-May-25 11:20N 49°26' W 001°57'1619.1
2015-May-25 10:31N 49°11' W 001°52'29 5.8
2015-May-25 05:33N 48°44' W 002°08'1816.2
2015-May-25 04:27N 48°59' W 002°22'1312.8
2015-May-25 03:25N 49°12' W 002°22'7913.4
2015-May-24 21:33N 50°21' W 001°24'1515.3
2015-May-24 20:33N 50°34' W 001°10'1313.1
2015-May-24 19:34N 50°47' W 001°06'2 1.8
2015-May-24 18:31N 50°49' W 001°06'0 0.0
2015-May-24 17:33N 50°49' W 001°06'7 6.8
2015-May-24 16:33N 50°42' W 001°03'2017.9
2015-May-24 15:26N 50°25' W 001°20'1719.0
2015-May-24 14:33N 50°11' W 001°33'11 0.7
2015-May-23 23:25N 49°60' W 001°31'1314.1
2015-May-23 22:30N 50°13' W 001°28'1314.3
2015-May-23 21:33N 50°24' W 001°17'1514.6
2015-May-23 20:33N 50°37' W 001°06'1010.1
2015-May-23 19:33N 50°47' W 001°06'2 1.9
2015-May-23 18:32N 50°49' W 001°06'0 0.0
2015-May-23 17:31N 50°49' W 001°06'4 4.6
2015-May-23 16:33N 50°44' W 001°04'1616.0
2015-May-23 15:32N 50°29' W 001°14'2116.7
2015-May-23 14:18N 50°13' W 001°34'6 0.4
2015-May-22 22:27N 50°14' W 001°24'1314.1
2015-May-22 21:33N 50°25' W 001°16'1413.7
2015-May-22 20:33N 50°37' W 001°04'1010.3
2015-May-22 19:33N 50°47' W 001°06'2 1.5
2015-May-22 18:32N 50°49' W 001°06'0 0.0
2015-May-22 17:32N 50°49' W 001°06'7 7.3
2015-May-22 16:33N 50°42' W 001°03'2016.6
2015-May-22 15:22N 50°26' W 001°22'66 5.1
2015-May-22 02:17N 49°29' W 002°13'2916.2
2015-May-22 00:32N 49°53' W 001°50'2914.9
2015-May-21 22:33N 50°18' W 001°24'1313.1
2015-May-21 21:33N 50°28' W 001°12'1312.8
2015-May-21 20:33N 50°38' W 001°00'1111.0
2015-May-21 19:33N 50°49' W 001°06'0 0.3
2015-May-21 18:33N 50°49' W 001°06'0 0.0
2015-May-21 17:33N 50°49' W 001°06'6 6.5
2015-May-21 16:34N 50°42' W 001°03'1615.8
2015-May-21 15:33N 50°28' W 001°14'30 1.9
2015-May-20 23:19N 50°01' W 001°34'1515.8
2015-May-20 22:24N 50°15' W 001°29'1214.4
2015-May-20 21:33N 50°23' W 001°15'1313.3
2015-May-20 20:33N 50°34' W 001°02'1212.3
2015-May-20 19:34N 50°46' W 001°05'3 2.9
2015-May-20 18:33N 50°49' W 001°06'0 0.0
2015-May-20 17:33N 50°49' W 001°06'0 0.0
2015-May-20 16:33N 50°49' W 001°06'0 0.0
2015-May-20 15:33N 50°49' W 001°06'0 0.0
2015-May-20 14:33N 50°49' W 001°06'0 0.0
2015-May-20 13:33N 50°49' W 001°06'0 0.0
2015-May-20 12:33N 50°49' W 001°06'0 0.0
2015-May-20 11:33N 50°49' W 001°06'0 0.0
2015-May-20 10:33N 50°49' W 001°06'0 0.0
2015-May-20 09:33N 50°49' W 001°06'0 0.0
2015-May-20 08:33N 50°49' W 001°06'0 0.0
2015-May-20 07:33N 50°49' W 001°06'0 0.1
2015-May-20 06:33N 50°49' W 001°06'1111.5
2015-May-20 05:34N 50°38' W 000°59'1413.5
2015-May-20 04:34N 50°27' W 001°12'13 0.4
2015-May-18 22:09N 50°18' W 001°26'813.4
2015-May-18 21:33N 50°25' W 001°19'1313.4
2015-May-18 20:34N 50°36' W 001°08'1111.3
2015-May-18 19:33N 50°48' W 001°07'1 1.3
2015-May-18 18:32N 50°49' W 001°06'0 0.0
2015-May-18 17:32N 50°49' W 001°06'4 4.4
2015-May-18 16:33N 50°44' W 001°05'1515.1
2015-May-18 15:33N 50°31' W 001°14'10 0.6
2015-May-17 21:33N 50°22' W 001°23'1413.8
2015-May-17 20:33N 50°34' W 001°11'1111.5
2015-May-17 19:34N 50°44' W 001°05'4 4.3
2015-May-17 18:33N 50°49' W 001°06'0 0.0
2015-May-17 17:33N 50°49' W 001°06'3 3.1
2015-May-17 16:33N 50°46' W 001°05'27 1.4
2015-May-16 21:33N 50°22' W 001°25'1514.9
2015-May-16 20:33N 50°34' W 001°11'1211.6
2015-May-16 19:34N 50°45' W 001°05'4 3.8
2015-May-16 18:32N 50°49' W 001°06'0 0.0
2015-May-16 17:33N 50°49' W 001°06'3 2.8
2015-May-16 16:33N 50°46' W 001°05'2317.2
2015-May-16 15:15N 50°25' W 001°18'1419.2
2015-May-16 14:31N 50°13' W 001°30'2217.5
2015-May-16 13:17N 49°56' W 001°50'11 0.9
2015-May-16 00:17N 49°47' W 002°00'4516.7
2015-May-15 21:33N 50°24' W 001°21'1716.7
2015-May-15 20:34N 50°38' W 001°05'1010.5
2015-May-15 19:33N 50°48' W 001°07'  

Dump ship's entire track history